sensor_id;sensor_type;location;lat;lon;timestamp;temperature;humidity
4697;DHT22;2362;50.780;0.292;2023-07-13T00:00:25;16.60;99.90
4697;DHT22;2362;50.780;0.292;2023-07-13T00:02:51;16.60;99.90
4697;DHT22;2362;50.780;0.292;2023-07-13T00:05:21;16.60;99.90
4697;DHT22;2362;50.780;0.292;2023-07-13T00:07:47;16.60;99.90
4697;DHT22;2362;50.780;0.292;2023-07-13T00:10:14;16.50;99.90
4697;DHT22;2362;50.780;0.292;2023-07-13T00:12:39;16.50;99.90
4697;DHT22;2362;50.780;0.292;2023-07-13T00:15:15;16.50;99.90
4697;DHT22;2362;50.780;0.292;2023-07-13T00:17:42;16.40;99.90
4697;DHT22;2362;50.780;0.292;2023-07-13T00:20:10;16.40;99.90
4697;DHT22;2362;50.780;0.292;2023-07-13T00:22:37;16.50;99.90
4697;DHT22;2362;50.780;0.292;2023-07-13T00:25:03;16.50;99.90
4697;DHT22;2362;50.780;0.292;2023-07-13T00:27:29;16.50;99.90
4697;DHT22;2362;50.780;0.292;2023-07-13T00:29:57;16.40;99.90
4697;DHT22;2362;50.780;0.292;2023-07-13T00:32:23;16.50;99.90
4697;DHT22;2362;50.780;0.292;2023-07-13T00:34:51;16.50;99.90
4697;DHT22;2362;50.780;0.292;2023-07-13T00:37:17;16.50;99.90
4697;DHT22;2362;50.780;0.292;2023-07-13T00:39:42;16.60;99.90
4697;DHT22;2362;50.780;0.292;2023-07-13T00:42:08;16.60;99.90
4697;DHT22;2362;50.780;0.292;2023-07-13T00:44:34;16.60;99.90
4697;DHT22;2362;50.780;0.292;2023-07-13T00:47:00;16.60;99.90
4697;DHT22;2362;50.780;0.292;2023-07-13T00:49:27;16.60;99.90
4697;DHT22;2362;50.780;0.292;2023-07-13T00:51:55;16.60;99.90
4697;DHT22;2362;50.780;0.292;2023-07-13T00:54:28;16.50;99.90
4697;DHT22;2362;50.780;0.292;2023-07-13T00:56:59;16.50;99.90
4697;DHT22;2362;50.780;0.292;2023-07-13T00:59:26;16.50;99.90
4697;DHT22;2362;50.780;0.292;2023-07-13T01:01:52;16.50;99.90
4697;DHT22;2362;50.780;0.292;2023-07-13T01:04:18;16.40;99.90
4697;DHT22;2362;50.780;0.292;2023-07-13T01:06:47;16.40;99.90
4697;DHT22;2362;50.780;0.292;2023-07-13T01:09:13;16.40;99.90
4697;DHT22;2362;50.780;0.292;2023-07-13T01:11:40;16.40;99.90
4697;DHT22;2362;50.780;0.292;2023-07-13T01:14:07;16.40;99.90
4697;DHT22;2362;50.780;0.292;2023-07-13T01:16:35;16.40;99.90
4697;DHT22;2362;50.780;0.292;2023-07-13T01:19:01;16.40;99.90
4697;DHT22;2362;50.780;0.292;2023-07-13T01:21:29;16.30;99.90
4697;DHT22;2362;50.780;0.292;2023-07-13T01:23:55;16.40;99.90
4697;DHT22;2362;50.780;0.292;2023-07-13T01:26:21;16.40;99.90
4697;DHT22;2362;50.780;0.292;2023-07-13T01:28:47;16.40;99.90
4697;DHT22;2362;50.780;0.292;2023-07-13T01:31:13;16.40;99.90
4697;DHT22;2362;50.780;0.292;2023-07-13T01:33:40;16.50;99.90
4697;DHT22;2362;50.780;0.292;2023-07-13T01:36:10;16.50;99.90
4697;DHT22;2362;50.780;0.292;2023-07-13T01:38:36;16.50;99.90
4697;DHT22;2362;50.780;0.292;2023-07-13T01:41:02;16.50;99.90
4697;DHT22;2362;50.780;0.292;2023-07-13T01:43:28;16.50;99.90
4697;DHT22;2362;50.780;0.292;2023-07-13T01:45:54;16.50;99.90
4697;DHT22;2362;50.780;0.292;2023-07-13T01:48:20;16.50;99.90
4697;DHT22;2362;50.780;0.292;2023-07-13T01:50:46;16.50;99.90
4697;DHT22;2362;50.780;0.292;2023-07-13T01:53:12;16.40;99.90
4697;DHT22;2362;50.780;0.292;2023-07-13T01:55:38;16.30;99.90
4697;DHT22;2362;50.780;0.292;2023-07-13T01:58:04;16.30;99.90
4697;DHT22;2362;50.780;0.292;2023-07-13T02:00:30;16.30;99.90
4697;DHT22;2362;50.780;0.292;2023-07-13T02:02:56;16.20;99.90
4697;DHT22;2362;50.780;0.292;2023-07-13T02:05:21;16.20;99.90
4697;DHT22;2362;50.780;0.292;2023-07-13T02:07:47;16.10;99.90
4697;DHT22;2362;50.780;0.292;2023-07-13T02:10:13;16.10;99.90
4697;DHT22;2362;50.780;0.292;2023-07-13T02:12:40;16.00;99.90
4697;DHT22;2362;50.780;0.292;2023-07-13T02:15:07;16.00;99.90
4697;DHT22;2362;50.780;0.292;2023-07-13T02:17:34;15.90;99.90
4697;DHT22;2362;50.780;0.292;2023-07-13T02:20:00;15.90;99.90
4697;DHT22;2362;50.780;0.292;2023-07-13T02:22:26;15.90;99.90
4697;DHT22;2362;50.780;0.292;2023-07-13T02:24:51;15.80;99.90
4697;DHT22;2362;50.780;0.292;2023-07-13T02:27:17;15.80;99.90
4697;DHT22;2362;50.780;0.292;2023-07-13T02:29:43;15.80;99.90
4697;DHT22;2362;50.780;0.292;2023-07-13T02:32:09;15.80;99.90
4697;DHT22;2362;50.780;0.292;2023-07-13T02:34:35;15.80;99.90
4697;DHT22;2362;50.780;0.292;2023-07-13T02:37:01;15.70;99.90
4697;DHT22;2362;50.780;0.292;2023-07-13T02:39:26;15.70;99.90
4697;DHT22;2362;50.780;0.292;2023-07-13T02:41:52;15.60;99.90
4697;DHT22;2362;50.780;0.292;2023-07-13T02:44:18;15.60;99.90
4697;DHT22;2362;50.780;0.292;2023-07-13T02:46:43;15.60;99.90
4697;DHT22;2362;50.780;0.292;2023-07-13T02:49:10;15.50;99.90
4697;DHT22;2362;50.780;0.292;2023-07-13T02:51:36;15.60;99.90
4697;DHT22;2362;50.780;0.292;2023-07-13T02:54:02;15.60;99.90
4697;DHT22;2362;50.780;0.292;2023-07-13T02:56:29;15.60;99.90
4697;DHT22;2362;50.780;0.292;2023-07-13T02:58:55;15.50;99.90
4697;DHT22;2362;50.780;0.292;2023-07-13T03:01:22;15.50;99.90
4697;DHT22;2362;50.780;0.292;2023-07-13T03:03:49;15.50;99.90
4697;DHT22;2362;50.780;0.292;2023-07-13T03:06:15;15.40;99.90
4697;DHT22;2362;50.780;0.292;2023-07-13T03:08:42;15.40;99.90
4697;DHT22;2362;50.780;0.292;2023-07-13T03:11:11;15.40;99.90
4697;DHT22;2362;50.780;0.292;2023-07-13T03:13:38;15.40;99.90
4697;DHT22;2362;50.780;0.292;2023-07-13T03:16:05;15.40;99.90
4697;DHT22;2362;50.780;0.292;2023-07-13T03:18:31;15.40;99.90
4697;DHT22;2362;50.780;0.292;2023-07-13T03:20:57;15.30;99.90
4697;DHT22;2362;50.780;0.292;2023-07-13T03:23:23;15.40;99.90
4697;DHT22;2362;50.780;0.292;2023-07-13T03:25:50;15.40;99.90
4697;DHT22;2362;50.780;0.292;2023-07-13T03:28:16;15.30;99.90
4697;DHT22;2362;50.780;0.292;2023-07-13T03:30:42;15.30;99.90
4697;DHT22;2362;50.780;0.292;2023-07-13T03:33:07;15.30;99.90
4697;DHT22;2362;50.780;0.292;2023-07-13T03:35:34;15.20;99.90
4697;DHT22;2362;50.780;0.292;2023-07-13T03:38:00;15.20;99.90
4697;DHT22;2362;50.780;0.292;2023-07-13T03:40:27;15.20;99.90
4697;DHT22;2362;50.780;0.292;2023-07-13T03:42:53;15.30;99.90
4697;DHT22;2362;50.780;0.292;2023-07-13T03:45:19;15.20;99.90
4697;DHT22;2362;50.780;0.292;2023-07-13T03:47:45;15.20;99.90
4697;DHT22;2362;50.780;0.292;2023-07-13T03:50:11;15.20;99.90
4697;DHT22;2362;50.780;0.292;2023-07-13T03:52:37;15.20;99.90
4697;DHT22;2362;50.780;0.292;2023-07-13T03:55:03;15.20;99.90
4697;DHT22;2362;50.780;0.292;2023-07-13T03:57:29;15.20;99.90
4697;DHT22;2362;50.780;0.292;2023-07-13T03:59:54;15.20;99.90
4697;DHT22;2362;50.780;0.292;2023-07-13T04:02:20;15.30;99.90
4697;DHT22;2362;50.780;0.292;2023-07-13T04:04:46;15.20;99.90
4697;DHT22;2362;50.780;0.292;2023-07-13T04:07:12;15.30;99.90
4697;DHT22;2362;50.780;0.292;2023-07-13T04:09:37;15.30;99.90
4697;DHT22;2362;50.780;0.292;2023-07-13T04:12:04;15.40;99.90
4697;DHT22;2362;50.780;0.292;2023-07-13T04:14:30;15.50;99.90
4697;DHT22;2362;50.780;0.292;2023-07-13T04:16:55;15.60;99.90
4697;DHT22;2362;50.780;0.292;2023-07-13T04:19:21;15.70;99.90
4697;DHT22;2362;50.780;0.292;2023-07-13T04:21:47;15.80;99.90
4697;DHT22;2362;50.780;0.292;2023-07-13T04:24:12;15.90;99.90
4697;DHT22;2362;50.780;0.292;2023-07-13T04:26:38;16.10;99.90
4697;DHT22;2362;50.780;0.292;2023-07-13T04:29:06;16.20;99.90
4697;DHT22;2362;50.780;0.292;2023-07-13T04:31:32;16.30;99.90
4697;DHT22;2362;50.780;0.292;2023-07-13T04:33:58;16.30;99.90
4697;DHT22;2362;50.780;0.292;2023-07-13T04:36:25;16.40;99.90
4697;DHT22;2362;50.780;0.292;2023-07-13T04:38:53;16.50;99.90
4697;DHT22;2362;50.780;0.292;2023-07-13T04:41:20;16.60;99.90
4697;DHT22;2362;50.780;0.292;2023-07-13T04:43:47;16.60;99.90
4697;DHT22;2362;50.780;0.292;2023-07-13T04:46:15;16.70;99.90
4697;DHT22;2362;50.780;0.292;2023-07-13T04:48:43;16.80;99.90
4697;DHT22;2362;50.780;0.292;2023-07-13T04:51:09;16.80;99.90
4697;DHT22;2362;50.780;0.292;2023-07-13T04:53:35;16.80;99.90
4697;DHT22;2362;50.780;0.292;2023-07-13T04:56:01;16.80;99.90
4697;DHT22;2362;50.780;0.292;2023-07-13T04:58:27;16.80;99.90
4697;DHT22;2362;50.780;0.292;2023-07-13T05:00:58;16.80;99.90
4697;DHT22;2362;50.780;0.292;2023-07-13T05:03:24;16.90;99.90
4697;DHT22;2362;50.780;0.292;2023-07-13T05:05:58;16.90;99.90
4697;DHT22;2362;50.780;0.292;2023-07-13T05:08:25;16.90;99.90
4697;DHT22;2362;50.780;0.292;2023-07-13T05:10:51;16.90;99.90
4697;DHT22;2362;50.780;0.292;2023-07-13T05:13:17;16.90;99.90
4697;DHT22;2362;50.780;0.292;2023-07-13T05:15:43;16.90;99.90
4697;DHT22;2362;50.780;0.292;2023-07-13T05:18:09;16.80;99.90
4697;DHT22;2362;50.780;0.292;2023-07-13T05:20:34;16.80;99.90
4697;DHT22;2362;50.780;0.292;2023-07-13T05:23:00;17.00;99.90
4697;DHT22;2362;50.780;0.292;2023-07-13T05:25:25;17.30;99.90
4697;DHT22;2362;50.780;0.292;2023-07-13T05:27:51;17.80;99.90
4697;DHT22;2362;50.780;0.292;2023-07-13T05:30:17;17.70;99.90
4697;DHT22;2362;50.780;0.292;2023-07-13T05:32:42;17.60;99.90
4697;DHT22;2362;50.780;0.292;2023-07-13T05:35:08;17.50;99.90
4697;DHT22;2362;50.780;0.292;2023-07-13T05:37:34;17.40;99.90
4697;DHT22;2362;50.780;0.292;2023-07-13T05:40:00;17.20;99.90
4697;DHT22;2362;50.780;0.292;2023-07-13T05:42:25;17.50;99.90
4697;DHT22;2362;50.780;0.292;2023-07-13T05:44:51;18.10;99.90
4697;DHT22;2362;50.780;0.292;2023-07-13T05:47:16;18.00;99.90
4697;DHT22;2362;50.780;0.292;2023-07-13T05:49:42;17.70;99.90
4697;DHT22;2362;50.780;0.292;2023-07-13T05:52:08;17.40;99.90
4697;DHT22;2362;50.780;0.292;2023-07-13T05:54:33;17.60;99.90
4697;DHT22;2362;50.780;0.292;2023-07-13T05:56:59;18.60;99.90
4697;DHT22;2362;50.780;0.292;2023-07-13T05:59:25;19.40;99.90
4697;DHT22;2362;50.780;0.292;2023-07-13T06:01:51;20.30;99.90
4697;DHT22;2362;50.780;0.292;2023-07-13T06:04:18;20.40;99.90
4697;DHT22;2362;50.780;0.292;2023-07-13T06:06:44;19.90;99.90
4697;DHT22;2362;50.780;0.292;2023-07-13T06:09:10;19.60;99.90
4697;DHT22;2362;50.780;0.292;2023-07-13T06:11:35;19.70;99.90
4697;DHT22;2362;50.780;0.292;2023-07-13T06:14:01;19.50;99.90
4697;DHT22;2362;50.780;0.292;2023-07-13T06:16:27;20.00;99.90
4697;DHT22;2362;50.780;0.292;2023-07-13T06:18:52;21.10;99.90
4697;DHT22;2362;50.780;0.292;2023-07-13T06:21:20;22.10;99.90
4697;DHT22;2362;50.780;0.292;2023-07-13T06:23:47;22.30;99.90
4697;DHT22;2362;50.780;0.292;2023-07-13T06:26:16;21.70;99.90
4697;DHT22;2362;50.780;0.292;2023-07-13T06:28:43;21.50;99.90
4697;DHT22;2362;50.780;0.292;2023-07-13T06:31:10;21.80;99.90
4697;DHT22;2362;50.780;0.292;2023-07-13T06:33:36;22.40;99.90
4697;DHT22;2362;50.780;0.292;2023-07-13T06:36:04;22.90;99.90
4697;DHT22;2362;50.780;0.292;2023-07-13T06:38:30;23.00;99.90
4697;DHT22;2362;50.780;0.292;2023-07-13T06:40:56;22.80;99.90
4697;DHT22;2362;50.780;0.292;2023-07-13T06:43:22;22.90;99.90
4697;DHT22;2362;50.780;0.292;2023-07-13T06:45:50;22.90;99.90
4697;DHT22;2362;50.780;0.292;2023-07-13T06:48:17;22.70;99.90
4697;DHT22;2362;50.780;0.292;2023-07-13T06:50:43;22.50;99.90
4697;DHT22;2362;50.780;0.292;2023-07-13T06:53:10;22.20;99.90
4697;DHT22;2362;50.780;0.292;2023-07-13T06:55:37;22.70;99.90
4697;DHT22;2362;50.780;0.292;2023-07-13T06:58:03;22.70;99.90
4697;DHT22;2362;50.780;0.292;2023-07-13T07:00:29;22.40;99.90
4697;DHT22;2362;50.780;0.292;2023-07-13T07:02:54;22.50;99.90
4697;DHT22;2362;50.780;0.292;2023-07-13T07:05:20;22.80;99.90
4697;DHT22;2362;50.780;0.292;2023-07-13T07:07:49;22.90;99.90
4697;DHT22;2362;50.780;0.292;2023-07-13T07:10:14;22.10;99.90
4697;DHT22;2362;50.780;0.292;2023-07-13T07:12:40;21.00;99.90
4697;DHT22;2362;50.780;0.292;2023-07-13T07:15:06;20.60;99.90
4697;DHT22;2362;50.780;0.292;2023-07-13T07:17:32;20.60;99.90
4697;DHT22;2362;50.780;0.292;2023-07-13T07:19:57;20.50;99.90
4697;DHT22;2362;50.780;0.292;2023-07-13T07:22:23;20.30;99.90
4697;DHT22;2362;50.780;0.292;2023-07-13T07:24:52;20.20;99.90
4697;DHT22;2362;50.780;0.292;2023-07-13T07:27:18;20.20;99.90
4697;DHT22;2362;50.780;0.292;2023-07-13T07:29:44;20.10;99.90
4697;DHT22;2362;50.780;0.292;2023-07-13T07:32:10;19.90;99.90
4697;DHT22;2362;50.780;0.292;2023-07-13T07:34:35;19.80;99.90
4697;DHT22;2362;50.780;0.292;2023-07-13T07:37:02;19.60;99.90
4697;DHT22;2362;50.780;0.292;2023-07-13T07:39:28;19.40;99.90
4697;DHT22;2362;50.780;0.292;2023-07-13T07:41:54;19.50;99.90
4697;DHT22;2362;50.780;0.292;2023-07-13T07:44:20;19.30;99.90
4697;DHT22;2362;50.780;0.292;2023-07-13T07:46:45;19.30;99.90
4697;DHT22;2362;50.780;0.292;2023-07-13T07:49:11;19.30;99.90
4697;DHT22;2362;50.780;0.292;2023-07-13T07:51:37;19.30;99.90
4697;DHT22;2362;50.780;0.292;2023-07-13T07:54:04;19.10;99.90
4697;DHT22;2362;50.780;0.292;2023-07-13T07:56:30;19.20;99.90
4697;DHT22;2362;50.780;0.292;2023-07-13T07:58:55;19.10;99.90
4697;DHT22;2362;50.780;0.292;2023-07-13T08:01:21;19.20;99.90
4697;DHT22;2362;50.780;0.292;2023-07-13T08:03:48;19.20;99.90
4697;DHT22;2362;50.780;0.292;2023-07-13T08:06:14;19.20;99.90
4697;DHT22;2362;50.780;0.292;2023-07-13T08:08:40;19.20;99.90
4697;DHT22;2362;50.780;0.292;2023-07-13T08:11:07;19.30;99.90
4697;DHT22;2362;50.780;0.292;2023-07-13T08:13:33;19.30;99.90
4697;DHT22;2362;50.780;0.292;2023-07-13T08:16:00;19.30;99.90
4697;DHT22;2362;50.780;0.292;2023-07-13T08:18:26;19.30;99.90
4697;DHT22;2362;50.780;0.292;2023-07-13T08:20:53;19.30;99.90
4697;DHT22;2362;50.780;0.292;2023-07-13T08:23:22;19.30;99.90
4697;DHT22;2362;50.780;0.292;2023-07-13T08:25:52;18.90;99.90
4697;DHT22;2362;50.780;0.292;2023-07-13T08:28:19;18.80;99.90
4697;DHT22;2362;50.780;0.292;2023-07-13T08:30:45;18.80;99.90
4697;DHT22;2362;50.780;0.292;2023-07-13T08:33:21;18.60;99.90
4697;DHT22;2362;50.780;0.292;2023-07-13T08:35:48;18.50;99.90
4697;DHT22;2362;50.780;0.292;2023-07-13T08:38:15;18.50;99.90
4697;DHT22;2362;50.780;0.292;2023-07-13T08:40:42;18.40;99.90
4697;DHT22;2362;50.780;0.292;2023-07-13T08:43:22;18.30;99.90
4697;DHT22;2362;50.780;0.292;2023-07-13T08:45:54;18.50;99.90
4697;DHT22;2362;50.780;0.292;2023-07-13T08:48:31;18.60;99.90
4697;DHT22;2362;50.780;0.292;2023-07-13T08:51:00;18.60;99.90
4697;DHT22;2362;50.780;0.292;2023-07-13T08:53:39;18.50;99.90
4697;DHT22;2362;50.780;0.292;2023-07-13T08:56:15;18.50;99.90
4697;DHT22;2362;50.780;0.292;2023-07-13T08:58:41;18.60;99.90
4697;DHT22;2362;50.780;0.292;2023-07-13T09:01:14;18.70;99.90
4697;DHT22;2362;50.780;0.292;2023-07-13T09:03:53;18.90;99.90
4697;DHT22;2362;50.780;0.292;2023-07-13T09:06:39;19.00;99.90
4697;DHT22;2362;50.780;0.292;2023-07-13T09:09:32;19.10;99.90
4697;DHT22;2362;50.780;0.292;2023-07-13T09:12:31;19.40;99.90
4697;DHT22;2362;50.780;0.292;2023-07-13T09:15:02;19.80;99.90
4697;DHT22;2362;50.780;0.292;2023-07-13T09:17:39;19.90;99.90
4697;DHT22;2362;50.780;0.292;2023-07-13T09:20:14;19.70;99.90
4697;DHT22;2362;50.780;0.292;2023-07-13T09:22:43;19.80;99.90
4697;DHT22;2362;50.780;0.292;2023-07-13T09:25:32;20.10;99.90
4697;DHT22;2362;50.780;0.292;2023-07-13T09:28:26;20.20;99.90
4697;DHT22;2362;50.780;0.292;2023-07-13T09:33:40;20.20;99.90
4697;DHT22;2362;50.780;0.292;2023-07-13T09:36:22;20.20;99.90
4697;DHT22;2362;50.780;0.292;2023-07-13T09:39:38;20.40;99.90
4697;DHT22;2362;50.780;0.292;2023-07-13T09:42:12;20.40;99.90
4697;DHT22;2362;50.780;0.292;2023-07-13T09:44:53;20.60;99.90
4697;DHT22;2362;50.780;0.292;2023-07-13T09:47:31;20.70;99.90
4697;DHT22;2362;50.780;0.292;2023-07-13T09:50:15;20.60;99.90
4697;DHT22;2362;50.780;0.292;2023-07-13T09:52:46;21.20;99.90
4697;DHT22;2362;50.780;0.292;2023-07-13T09:55:31;21.60;99.90
4697;DHT22;2362;50.780;0.292;2023-07-13T10:00:38;21.80;99.90
4697;DHT22;2362;50.780;0.292;2023-07-13T10:03:30;21.90;99.90
4697;DHT22;2362;50.780;0.292;2023-07-13T10:06:14;21.60;99.90
4697;DHT22;2362;50.780;0.292;2023-07-13T10:08:40;21.60;99.90
4697;DHT22;2362;50.780;0.292;2023-07-13T10:11:21;21.60;99.90
4697;DHT22;2362;50.780;0.292;2023-07-13T10:16:17;21.60;99.90
4697;DHT22;2362;50.780;0.292;2023-07-13T10:18:48;21.60;99.90
4697;DHT22;2362;50.780;0.292;2023-07-13T10:21:21;21.20;99.90
4697;DHT22;2362;50.780;0.292;2023-07-13T10:23:51;21.20;99.90
4697;DHT22;2362;50.780;0.292;2023-07-13T10:26:22;21.10;99.90
4697;DHT22;2362;50.780;0.292;2023-07-13T10:28:52;20.90;99.90
4697;DHT22;2362;50.780;0.292;2023-07-13T10:31:19;21.10;99.90
4697;DHT22;2362;50.780;0.292;2023-07-13T10:33:45;20.90;99.90
4697;DHT22;2362;50.780;0.292;2023-07-13T10:36:34;21.00;99.90
4697;DHT22;2362;50.780;0.292;2023-07-13T10:39:05;21.00;99.90
4697;DHT22;2362;50.780;0.292;2023-07-13T10:41:35;21.20;99.90
4697;DHT22;2362;50.780;0.292;2023-07-13T10:44:04;21.30;99.90
4697;DHT22;2362;50.780;0.292;2023-07-13T10:46:31;21.30;99.90
4697;DHT22;2362;50.780;0.292;2023-07-13T10:48:59;21.30;99.90
4697;DHT22;2362;50.780;0.292;2023-07-13T10:51:27;21.20;99.90
4697;DHT22;2362;50.780;0.292;2023-07-13T10:54:17;21.20;99.90
4697;DHT22;2362;50.780;0.292;2023-07-13T10:56:43;21.80;99.90
4697;DHT22;2362;50.780;0.292;2023-07-13T11:04:16;22.10;99.90
4697;DHT22;2362;50.780;0.292;2023-07-13T11:06:43;22.00;99.90
4697;DHT22;2362;50.780;0.292;2023-07-13T11:09:34;22.10;99.90
4697;DHT22;2362;50.780;0.292;2023-07-13T11:17:33;22.30;99.90
4697;DHT22;2362;50.780;0.292;2023-07-13T11:22:49;21.90;99.90
4697;DHT22;2362;50.780;0.292;2023-07-13T11:30:47;21.90;99.90
4697;DHT22;2362;50.780;0.292;2023-07-13T11:33:27;21.70;99.90
4697;DHT22;2362;50.780;0.292;2023-07-13T11:36:12;21.70;99.90
4697;DHT22;2362;50.780;0.292;2023-07-13T11:38:43;21.70;99.90
4697;DHT22;2362;50.780;0.292;2023-07-13T11:41:23;21.50;99.90
4697;DHT22;2362;50.780;0.292;2023-07-13T11:43:52;21.60;99.90
4697;DHT22;2362;50.780;0.292;2023-07-13T11:46:24;21.80;99.90
4697;DHT22;2362;50.780;0.292;2023-07-13T11:48:50;21.80;99.90
4697;DHT22;2362;50.780;0.292;2023-07-13T11:51:36;21.90;99.90
4697;DHT22;2362;50.780;0.292;2023-07-13T11:54:13;21.90;99.90
4697;DHT22;2362;50.780;0.292;2023-07-13T11:56:42;21.70;99.90
4697;DHT22;2362;50.780;0.292;2023-07-13T11:59:10;21.70;99.90
4697;DHT22;2362;50.780;0.292;2023-07-13T12:01:42;21.70;99.90
4697;DHT22;2362;50.780;0.292;2023-07-13T12:04:20;21.50;99.90
4697;DHT22;2362;50.780;0.292;2023-07-13T12:06:57;21.60;99.90
4697;DHT22;2362;50.780;0.292;2023-07-13T12:09:26;21.90;99.90
4697;DHT22;2362;50.780;0.292;2023-07-13T12:11:53;21.90;99.90
4697;DHT22;2362;50.780;0.292;2023-07-13T12:14:19;21.60;99.90
4697;DHT22;2362;50.780;0.292;2023-07-13T12:16:46;21.80;99.90
4697;DHT22;2362;50.780;0.292;2023-07-13T12:19:23;21.90;99.90
4697;DHT22;2362;50.780;0.292;2023-07-13T12:21:52;21.90;99.90
4697;DHT22;2362;50.780;0.292;2023-07-13T12:24:20;21.80;99.90
4697;DHT22;2362;50.780;0.292;2023-07-13T12:27:02;21.50;99.90
4697;DHT22;2362;50.780;0.292;2023-07-13T12:29:30;21.60;99.90
4697;DHT22;2362;50.780;0.292;2023-07-13T12:31:56;21.80;99.90
4697;DHT22;2362;50.780;0.292;2023-07-13T12:34:24;21.80;99.90
4697;DHT22;2362;50.780;0.292;2023-07-13T12:36:58;21.90;99.90
4697;DHT22;2362;50.780;0.292;2023-07-13T12:39:35;21.90;99.90
4697;DHT22;2362;50.780;0.292;2023-07-13T12:47:43;22.10;99.90
4697;DHT22;2362;50.780;0.292;2023-07-13T12:50:21;22.00;99.90
4697;DHT22;2362;50.780;0.292;2023-07-13T12:52:54;22.00;99.90
4697;DHT22;2362;50.780;0.292;2023-07-13T12:55:21;21.90;99.90
4697;DHT22;2362;50.780;0.292;2023-07-13T12:57:55;21.80;99.90
4697;DHT22;2362;50.780;0.292;2023-07-13T13:00:35;21.80;99.90
4697;DHT22;2362;50.780;0.292;2023-07-13T13:05:47;21.70;99.90
4697;DHT22;2362;50.780;0.292;2023-07-13T13:08:15;21.60;99.90
4697;DHT22;2362;50.780;0.292;2023-07-13T13:10:40;21.60;99.90
4697;DHT22;2362;50.780;0.292;2023-07-13T13:13:06;21.60;99.90
4697;DHT22;2362;50.780;0.292;2023-07-13T13:15:33;21.60;99.90
4697;DHT22;2362;50.780;0.292;2023-07-13T13:17:59;21.60;99.90
4697;DHT22;2362;50.780;0.292;2023-07-13T13:20:25;21.20;99.90
4697;DHT22;2362;50.780;0.292;2023-07-13T13:22:54;21.30;99.90
4697;DHT22;2362;50.780;0.292;2023-07-13T13:25:20;21.40;99.90
4697;DHT22;2362;50.780;0.292;2023-07-13T13:27:47;21.20;99.90
4697;DHT22;2362;50.780;0.292;2023-07-13T13:30:17;21.20;99.90
4697;DHT22;2362;50.780;0.292;2023-07-13T13:32:45;21.10;99.90
4697;DHT22;2362;50.780;0.292;2023-07-13T13:35:19;21.20;99.90
4697;DHT22;2362;50.780;0.292;2023-07-13T13:37:46;21.20;99.90
4697;DHT22;2362;50.780;0.292;2023-07-13T13:40:17;21.20;99.90
4697;DHT22;2362;50.780;0.292;2023-07-13T13:42:43;21.40;99.90
4697;DHT22;2362;50.780;0.292;2023-07-13T13:45:10;21.50;99.90
4697;DHT22;2362;50.780;0.292;2023-07-13T13:47:36;21.30;99.90
4697;DHT22;2362;50.780;0.292;2023-07-13T13:50:18;21.40;99.90
4697;DHT22;2362;50.780;0.292;2023-07-13T13:52:44;21.50;99.90
4697;DHT22;2362;50.780;0.292;2023-07-13T13:55:14;21.50;99.90
4697;DHT22;2362;50.780;0.292;2023-07-13T13:57:40;21.70;99.90
4697;DHT22;2362;50.780;0.292;2023-07-13T14:00:08;21.80;99.90
4697;DHT22;2362;50.780;0.292;2023-07-13T14:02:34;21.80;99.90
4697;DHT22;2362;50.780;0.292;2023-07-13T14:05:05;21.90;99.90
4697;DHT22;2362;50.780;0.292;2023-07-13T14:07:33;21.70;99.90
4697;DHT22;2362;50.780;0.292;2023-07-13T14:09:59;22.00;99.90
4697;DHT22;2362;50.780;0.292;2023-07-13T14:12:27;22.00;99.90
4697;DHT22;2362;50.780;0.292;2023-07-13T14:14:55;22.10;99.90
4697;DHT22;2362;50.780;0.292;2023-07-13T14:17:27;22.20;99.90
4697;DHT22;2362;50.780;0.292;2023-07-13T14:19:53;22.10;99.90
4697;DHT22;2362;50.780;0.292;2023-07-13T14:22:26;22.00;99.90
4697;DHT22;2362;50.780;0.292;2023-07-13T14:24:55;22.10;99.90
4697;DHT22;2362;50.780;0.292;2023-07-13T14:27:23;22.10;99.90
4697;DHT22;2362;50.780;0.292;2023-07-13T14:29:50;22.40;99.90
4697;DHT22;2362;50.780;0.292;2023-07-13T14:32:16;22.40;99.90
4697;DHT22;2362;50.780;0.292;2023-07-13T14:34:42;22.30;99.90
4697;DHT22;2362;50.780;0.292;2023-07-13T14:37:13;22.30;99.90
4697;DHT22;2362;50.780;0.292;2023-07-13T14:39:40;22.20;99.90
4697;DHT22;2362;50.780;0.292;2023-07-13T14:42:09;22.10;99.90
4697;DHT22;2362;50.780;0.292;2023-07-13T14:44:35;22.10;99.90
4697;DHT22;2362;50.780;0.292;2023-07-13T14:47:03;21.80;99.90
4697;DHT22;2362;50.780;0.292;2023-07-13T14:49:32;21.60;99.90
4697;DHT22;2362;50.780;0.292;2023-07-13T14:52:02;21.50;99.90
4697;DHT22;2362;50.780;0.292;2023-07-13T14:54:29;21.50;99.90
4697;DHT22;2362;50.780;0.292;2023-07-13T14:56:55;21.50;99.90
4697;DHT22;2362;50.780;0.292;2023-07-13T14:59:20;21.70;99.90
4697;DHT22;2362;50.780;0.292;2023-07-13T15:01:47;21.90;99.90
4697;DHT22;2362;50.780;0.292;2023-07-13T15:04:14;21.80;99.90
4697;DHT22;2362;50.780;0.292;2023-07-13T15:06:58;21.70;99.90
4697;DHT22;2362;50.780;0.292;2023-07-13T15:09:25;21.30;99.90
4697;DHT22;2362;50.780;0.292;2023-07-13T15:11:53;21.30;99.90
4697;DHT22;2362;50.780;0.292;2023-07-13T15:14:19;21.20;99.90
4697;DHT22;2362;50.780;0.292;2023-07-13T15:16:47;21.40;99.90
4697;DHT22;2362;50.780;0.292;2023-07-13T15:19:15;21.40;99.90
4697;DHT22;2362;50.780;0.292;2023-07-13T15:21:41;21.50;99.90
4697;DHT22;2362;50.780;0.292;2023-07-13T15:24:10;21.60;99.90
4697;DHT22;2362;50.780;0.292;2023-07-13T15:26:36;21.80;99.90
4697;DHT22;2362;50.780;0.292;2023-07-13T15:29:02;22.00;99.90
4697;DHT22;2362;50.780;0.292;2023-07-13T15:31:28;22.10;99.90
4697;DHT22;2362;50.780;0.292;2023-07-13T15:33:57;22.10;99.90
4697;DHT22;2362;50.780;0.292;2023-07-13T15:36:24;22.10;99.90
4697;DHT22;2362;50.780;0.292;2023-07-13T15:38:54;21.90;99.90
4697;DHT22;2362;50.780;0.292;2023-07-13T15:41:21;21.70;99.90
4697;DHT22;2362;50.780;0.292;2023-07-13T15:43:49;21.60;99.90
4697;DHT22;2362;50.780;0.292;2023-07-13T15:46:18;21.40;99.90
4697;DHT22;2362;50.780;0.292;2023-07-13T15:48:45;21.20;99.90
4697;DHT22;2362;50.780;0.292;2023-07-13T15:51:16;21.10;99.90
4697;DHT22;2362;50.780;0.292;2023-07-13T15:53:43;21.20;99.90
4697;DHT22;2362;50.780;0.292;2023-07-13T15:56:29;21.10;99.90
4697;DHT22;2362;50.780;0.292;2023-07-13T15:58:55;20.70;99.90
4697;DHT22;2362;50.780;0.292;2023-07-13T16:01:23;20.60;99.90
4697;DHT22;2362;50.780;0.292;2023-07-13T16:03:49;20.60;99.90
4697;DHT22;2362;50.780;0.292;2023-07-13T16:06:19;20.70;99.90
4697;DHT22;2362;50.780;0.292;2023-07-13T16:08:48;20.70;99.90
4697;DHT22;2362;50.780;0.292;2023-07-13T16:13:47;20.60;99.90
4697;DHT22;2362;50.780;0.292;2023-07-13T16:16:19;20.50;99.90
4697;DHT22;2362;50.780;0.292;2023-07-13T16:18:45;20.30;99.90
4697;DHT22;2362;50.780;0.292;2023-07-13T16:21:14;20.10;99.90
4697;DHT22;2362;50.780;0.292;2023-07-13T16:23:42;20.10;99.90
4697;DHT22;2362;50.780;0.292;2023-07-13T16:26:31;20.00;99.90
4697;DHT22;2362;50.780;0.292;2023-07-13T16:31:38;19.80;99.90
4697;DHT22;2362;50.780;0.292;2023-07-13T16:34:05;19.80;99.90
4697;DHT22;2362;50.780;0.292;2023-07-13T16:36:30;19.60;99.90
4697;DHT22;2362;50.780;0.292;2023-07-13T16:38:58;19.50;99.90
4697;DHT22;2362;50.780;0.292;2023-07-13T16:41:23;19.60;99.90
4697;DHT22;2362;50.780;0.292;2023-07-13T16:43:49;19.70;99.90
4697;DHT22;2362;50.780;0.292;2023-07-13T16:46:21;19.70;99.90
4697;DHT22;2362;50.780;0.292;2023-07-13T16:48:47;19.80;99.90
4697;DHT22;2362;50.780;0.292;2023-07-13T16:51:12;19.70;99.90